createdAt,value
2023-03-14T00:02:06.606Z,47.73
2023-03-14T00:07:17.626Z,48.67
2023-03-14T00:12:24.487Z,48.08
2023-03-14T00:17:31.843Z,47.65
2023-03-14T00:22:40.243Z,47.67
2023-03-14T00:27:48.177Z,47.53
2023-03-14T00:32:55.690Z,47.23
2023-03-14T00:38:02.765Z,47.40
2023-03-14T00:43:09.984Z,47.57
2023-03-14T00:48:17.291Z,48.00
2023-03-14T00:53:24.778Z,47.67
2023-03-14T00:58:31.792Z,47.00
2023-03-14T01:03:38.587Z,46.23
2023-03-14T01:08:47.334Z,46.70
2023-03-14T01:13:54.355Z,46.67
2023-03-14T01:19:01.681Z,45.70
2023-03-14T01:24:09.213Z,46.37
2023-03-14T01:29:18.393Z,46.30
2023-03-14T01:34:24.706Z,46.63
2023-03-14T01:39:31.700Z,46.70
2023-03-14T01:45:01.827Z,46.50
2023-03-14T01:50:12.743Z,46.07
2023-03-14T01:55:24.293Z,46.57
2023-03-14T02:00:31.402Z,45.28
2023-03-14T02:05:41.772Z,46.13
2023-03-14T02:10:51.524Z,45.37
2023-03-14T02:15:59.170Z,46.13
2023-03-14T02:21:33.583Z,45.45
2023-03-14T02:27:13.136Z,45.73
2023-03-14T02:32:23.054Z,45.23
2023-03-14T02:37:44.452Z,46.00
2023-03-14T02:42:51.378Z,48.40
2023-03-14T02:53:07.412Z,46.20
2023-03-14T02:58:14.455Z,46.63
2023-03-14T03:03:23.472Z,46.56
2023-03-14T03:08:31.425Z,46.00
2023-03-14T03:13:39.484Z,46.83
2023-03-14T03:18:46.622Z,45.77
2023-03-14T03:23:53.903Z,46.40
2023-03-14T03:29:00.668Z,46.87
2023-03-14T03:34:07.511Z,46.93
2023-03-14T03:39:16.333Z,46.40
2023-03-14T03:44:23.852Z,46.77
2023-03-14T03:49:35.065Z,46.75
2023-03-14T03:54:41.545Z,46.30
2023-03-14T03:59:48.150Z,46.65
2023-03-14T04:10:00.381Z,46.02
2023-03-14T04:15:08.675Z,46.60
2023-03-14T04:20:17.090Z,46.88
2023-03-14T04:25:23.910Z,47.10
2023-03-14T04:30:31.273Z,47.40
2023-03-14T04:35:37.833Z,46.90
2023-03-14T04:40:45.469Z,46.23
2023-03-14T04:45:52.226Z,47.63
2023-03-14T04:50:59.694Z,46.70
2023-03-14T04:56:07.232Z,47.67
2023-03-14T05:01:13.749Z,47.33
2023-03-14T05:06:20.342Z,47.53
2023-03-14T05:11:27.165Z,47.73
2023-03-14T05:16:34.006Z,48.57
2023-03-14T05:21:41.732Z,47.73
2023-03-14T05:26:48.456Z,47.17
2023-03-14T05:31:55.602Z,47.83
2023-03-14T05:37:03.567Z,46.93
2023-03-14T05:42:10.143Z,48.13
2023-03-14T05:47:17.274Z,49.13
2023-03-14T05:52:24.056Z,46.20
2023-03-14T05:57:30.843Z,49.43
2023-03-14T06:02:37.584Z,46.42
2023-03-14T06:07:47.405Z,48.47
2023-03-14T06:12:53.760Z,48.73
2023-03-14T06:18:00.664Z,48.63
2023-03-14T06:23:09.299Z,48.70
2023-03-14T06:28:17.191Z,48.90
2023-03-14T06:33:24.223Z,50.13
2023-03-14T06:38:31.456Z,50.37
2023-03-14T06:43:38.330Z,47.70
2023-03-14T06:53:51.529Z,46.00
2023-03-14T06:58:58.204Z,47.17
2023-03-14T07:04:05.858Z,48.95
2023-03-14T07:09:13.711Z,47.90
2023-03-14T07:14:20.938Z,48.30
2023-03-14T07:19:28.865Z,47.62
2023-03-14T07:24:39.798Z,48.30
2023-03-14T07:29:54.897Z,46.83
2023-03-14T07:35:02.747Z,52.30
2023-03-14T07:40:12.973Z,47.80
2023-03-14T07:45:20.297Z,47.50
2023-03-14T07:50:29.911Z,47.87
2023-03-14T07:55:37.120Z,48.53
2023-03-14T08:00:44.324Z,46.53
2023-03-14T08:05:52.952Z,46.80
2023-03-14T08:11:10.342Z,46.97
2023-03-14T08:16:18.594Z,46.70
2023-03-14T08:21:25.455Z,46.23
2023-03-14T08:26:32.903Z,46.87
2023-03-14T08:31:39.418Z,46.70
2023-03-14T08:36:47.138Z,46.53
2023-03-14T08:41:55.143Z,46.87
2023-03-14T08:47:01.963Z,46.53
2023-03-14T08:52:09.225Z,46.43
2023-03-14T08:57:17.363Z,46.23
2023-03-14T09:02:24.695Z,46.10
2023-03-14T09:07:32.115Z,46.20
2023-03-14T09:12:39.544Z,45.85
2023-03-14T09:17:46.810Z,45.93
2023-03-14T09:22:56.563Z,46.90
2023-03-14T09:28:03.670Z,46.53
2023-03-14T09:33:11.937Z,46.13
2023-03-14T09:38:20.965Z,46.63
2023-03-14T09:43:31.446Z,46.73
2023-03-14T09:48:39.059Z,46.87
2023-03-14T09:53:49.754Z,46.83
2023-03-14T09:59:03.063Z,47.00
2023-03-14T10:04:24.495Z,47.50
2023-03-14T10:09:31.500Z,47.45
2023-03-14T10:19:58.504Z,47.45
2023-03-14T10:25:09.445Z,46.80
2023-03-14T10:30:41.525Z,47.67
2023-03-14T10:35:52.389Z,46.87
2023-03-14T10:41:00.271Z,46.63
2023-03-14T10:46:19.017Z,47.47
2023-03-14T10:51:31.999Z,46.77
2023-03-14T10:56:40.298Z,46.93
2023-03-14T11:02:09.086Z,47.20
2023-03-14T11:07:30.445Z,47.56
2023-03-14T11:12:50.483Z,47.43
2023-03-14T11:18:29.121Z,47.18
2023-03-14T11:23:46.741Z,47.00
2023-03-14T11:29:03.126Z,48.00
2023-03-14T11:34:20.153Z,48.03
2023-03-14T11:39:32.924Z,47.50
2023-03-14T11:44:42.410Z,47.93
2023-03-14T11:49:57.648Z,48.27
2023-03-14T11:55:11.462Z,47.93
2023-03-14T12:00:26.094Z,46.90
2023-03-14T12:05:46.662Z,47.40
2023-03-14T12:10:59.519Z,47.63
2023-03-14T12:16:10.513Z,48.57
2023-03-14T12:21:17.736Z,48.00
2023-03-14T12:26:33.521Z,47.67
2023-03-14T12:31:47.975Z,47.20
2023-03-14T12:37:21.795Z,47.23
2023-03-14T12:42:49.877Z,46.83
2023-03-14T12:48:24.715Z,47.17
2023-03-14T12:53:44.712Z,46.75
2023-03-14T12:59:18.744Z,47.23
2023-03-14T13:04:40.502Z,47.43
2023-03-14T13:10:01.265Z,47.03
2023-03-14T13:15:30.338Z,46.90
2023-03-14T13:20:44.517Z,47.97
2023-03-14T13:25:50.968Z,47.50
2023-03-14T13:36:10.000Z,47.15
2023-03-14T13:41:18.784Z,47.35
2023-03-14T13:46:27.663Z,47.17
2023-03-14T13:51:36.401Z,47.13
2023-03-14T13:56:45.782Z,47.23
2023-03-14T14:01:55.200Z,47.07
2023-03-14T14:07:03.232Z,46.90
2023-03-14T14:12:17.571Z,46.93
2023-03-14T14:17:39.431Z,46.93
2023-03-14T14:22:46.018Z,47.30
2023-03-14T14:27:53.458Z,47.03
2023-03-14T14:33:21.092Z,46.93
2023-03-14T14:38:29.027Z,47.33
2023-03-14T14:43:38.838Z,46.60
2023-03-14T14:48:46.824Z,47.43
2023-03-14T14:54:05.779Z,47.47
2023-03-14T14:59:30.789Z,47.47
2023-03-14T15:04:37.776Z,47.20
2023-03-14T15:09:45.685Z,47.00
2023-03-14T15:14:52.078Z,48.07
2023-03-14T15:19:59.785Z,47.40
2023-03-14T15:25:07.581Z,47.70
2023-03-14T15:30:17.120Z,46.97
2023-03-14T15:35:23.537Z,47.10
2023-03-14T15:40:30.941Z,47.00
2023-03-14T15:45:37.881Z,46.87
2023-03-14T15:50:45.065Z,46.23
2023-03-14T15:55:52.125Z,46.35
2023-03-14T16:01:00.807Z,46.53
2023-03-14T16:06:07.871Z,46.40
2023-03-14T16:11:16.253Z,46.67
2023-03-14T16:16:23.518Z,46.93
2023-03-14T16:21:30.923Z,46.28
2023-03-14T16:26:38.303Z,46.70
2023-03-14T16:31:45.966Z,46.13
2023-03-14T16:36:52.757Z,46.20
2023-03-14T16:42:01.037Z,46.63
2023-03-14T16:47:10.952Z,47.17
2023-03-14T16:52:17.990Z,47.50
2023-03-14T16:57:24.952Z,46.70
2023-03-14T17:02:32.346Z,46.53
2023-03-14T17:07:38.876Z,45.87
2023-03-14T17:12:47.717Z,46.43
2023-03-14T17:17:54.614Z,45.87
2023-03-14T17:23:02.219Z,46.00
2023-03-14T17:28:09.097Z,46.67
2023-03-14T17:33:19.828Z,46.60
2023-03-14T17:38:27.550Z,46.75
2023-03-14T17:43:34.993Z,46.27
2023-03-14T17:48:49.514Z,45.32
2023-03-14T17:53:57.194Z,46.33
2023-03-14T17:59:04.030Z,45.90
2023-03-14T18:04:11.429Z,46.10
2023-03-14T18:09:19.424Z,45.80
2023-03-14T18:19:33.478Z,45.90
2023-03-14T18:24:40.908Z,46.57
2023-03-14T18:29:48.469Z,46.27
2023-03-14T18:34:56.811Z,46.87
2023-03-14T18:40:07.090Z,46.50
2023-03-14T18:45:14.732Z,45.70
2023-03-14T18:50:22.622Z,45.52
2023-03-14T18:55:31.245Z,45.23
2023-03-14T19:00:38.901Z,45.95
2023-03-14T19:05:47.425Z,44.90
2023-03-14T19:11:00.961Z,44.50
2023-03-14T19:16:08.730Z,44.90
2023-03-14T19:21:16.514Z,47.80
2023-03-14T19:26:24.668Z,43.37
2023-03-14T19:31:32.093Z,43.58
2023-03-14T19:36:40.614Z,43.80
2023-03-14T19:41:49.053Z,43.20
2023-03-14T19:46:56.711Z,43.40
2023-03-14T19:52:06.372Z,43.17
2023-03-14T19:57:14.137Z,43.47
2023-03-14T20:02:23.782Z,43.13
2023-03-14T20:07:31.320Z,42.67
2023-03-14T20:17:49.271Z,42.03
2023-03-14T20:22:56.665Z,42.37
2023-03-14T20:28:06.236Z,42.20
2023-03-14T20:33:14.085Z,42.27
2023-03-14T20:38:21.194Z,42.13
2023-03-14T20:43:30.025Z,42.27
2023-03-14T20:48:38.318Z,42.37
2023-03-14T20:53:46.017Z,42.00
2023-03-14T20:58:53.881Z,41.97
2023-03-14T21:04:01.948Z,42.23
2023-03-14T21:09:09.847Z,42.40
2023-03-14T21:14:18.829Z,41.77
2023-03-14T21:19:29.353Z,42.30
2023-03-14T21:24:37.330Z,41.80
2023-03-14T21:29:44.743Z,42.13
2023-03-14T21:34:53.843Z,42.20
2023-03-14T21:40:00.596Z,42.30
2023-03-14T21:45:10.003Z,42.37
2023-03-14T21:50:17.850Z,42.17
2023-03-14T21:55:26.240Z,42.63
2023-03-14T22:00:33.687Z,42.37
2023-03-14T22:05:43.817Z,42.30
2023-03-14T22:10:55.129Z,41.93
2023-03-14T22:16:02.648Z,42.47
2023-03-14T22:21:09.878Z,42.07
2023-03-14T22:31:26.351Z,42.93
2023-03-14T22:36:33.667Z,42.20
2023-03-14T22:41:41.532Z,41.80
2023-03-14T22:46:48.867Z,42.03
2023-03-14T22:51:55.813Z,42.27
2023-03-14T22:57:04.255Z,42.27
2023-03-14T23:02:11.383Z,42.27
2023-03-14T23:07:18.694Z,42.80
2023-03-14T23:12:26.570Z,41.73
2023-03-14T23:17:34.672Z,41.93
2023-03-14T23:22:42.095Z,42.43
2023-03-14T23:27:53.791Z,42.30
2023-03-14T23:33:01.601Z,42.00
2023-03-14T23:38:08.400Z,42.63
2023-03-14T23:43:16.864Z,42.10
2023-03-14T23:48:27.392Z,41.23
2023-03-14T23:53:35.684Z,41.87
2023-03-14T23:58:43.220Z,41.50
